sensor_id;sensor_type;location;lat;lon;timestamp;P1;durP1;ratioP1;P2;durP2;ratioP2
55467;SDS011;41332;42.702;23.200;2022-09-28T03:22:41;3.72;;;2.95;;
55467;SDS011;41332;42.702;23.200;2022-09-28T03:25:07;4.20;;;3.15;;
55467;SDS011;41332;42.702;23.200;2022-09-28T03:27:33;4.78;;;3.45;;
55467;SDS011;41332;42.702;23.200;2022-09-28T03:29:58;4.15;;;3.67;;
55467;SDS011;41332;42.702;23.200;2022-09-28T03:32:24;4.28;;;3.50;;
55467;SDS011;41332;42.702;23.200;2022-09-28T03:34:49;2.95;;;2.65;;
55467;SDS011;41332;42.702;23.200;2022-09-28T03:37:15;4.53;;;4.18;;
55467;SDS011;41332;42.702;23.200;2022-09-28T03:39:41;5.30;;;3.80;;
55467;SDS011;41332;42.702;23.200;2022-09-28T03:42:07;7.30;;;4.00;;
55467;SDS011;41332;42.702;23.200;2022-09-28T03:44:32;4.85;;;3.22;;
55467;SDS011;41332;42.702;23.200;2022-09-28T03:46:57;7.25;;;3.78;;
55467;SDS011;41332;42.702;23.200;2022-09-28T03:49:23;5.47;;;4.32;;
55467;SDS011;41332;42.702;23.200;2022-09-28T03:51:48;4.30;;;3.90;;
55467;SDS011;41332;42.702;23.200;2022-09-28T03:54:14;3.95;;;3.58;;
55467;SDS011;41332;42.702;23.200;2022-09-28T03:56:40;5.03;;;4.43;;
55467;SDS011;41332;42.702;23.200;2022-09-28T03:59:05;6.05;;;4.60;;
55467;SDS011;41332;42.702;23.200;2022-09-28T04:01:31;6.68;;;4.10;;
55467;SDS011;41332;42.702;23.200;2022-09-28T04:03:56;6.63;;;4.90;;
55467;SDS011;41332;42.702;23.200;2022-09-28T04:06:23;5.93;;;4.43;;
55467;SDS011;41332;42.702;23.200;2022-09-28T04:08:49;11.73;;;4.60;;
55467;SDS011;41332;42.702;23.200;2022-09-28T04:11:14;6.40;;;4.32;;
55467;SDS011;41332;42.702;23.200;2022-09-28T04:13:40;6.95;;;4.20;;
55467;SDS011;41332;42.702;23.200;2022-09-28T04:16:05;10.93;;;5.05;;
55467;SDS011;41332;42.702;23.200;2022-09-28T04:18:31;6.22;;;5.00;;
55467;SDS011;41332;42.702;23.200;2022-09-28T04:20:58;5.60;;;4.25;;
55467;SDS011;41332;42.702;23.200;2022-09-28T04:23:27;5.38;;;4.43;;
55467;SDS011;41332;42.702;23.200;2022-09-28T04:25:52;6.18;;;4.57;;
55467;SDS011;41332;42.702;23.200;2022-09-28T04:28:18;6.15;;;4.43;;
55467;SDS011;41332;42.702;23.200;2022-09-28T04:31:02;5.72;;;4.32;;
55467;SDS011;41332;42.702;23.200;2022-09-28T04:33:28;4.40;;;3.97;;
55467;SDS011;41332;42.702;23.200;2022-09-28T04:35:53;7.20;;;4.68;;
55467;SDS011;41332;42.702;23.200;2022-09-28T04:38:18;4.30;;;3.90;;
55467;SDS011;41332;42.702;23.200;2022-09-28T04:40:44;5.25;;;4.30;;
55467;SDS011;41332;42.702;23.200;2022-09-28T04:43:13;9.57;;;4.55;;
55467;SDS011;41332;42.702;23.200;2022-09-28T04:45:38;4.25;;;3.72;;
55467;SDS011;41332;42.702;23.200;2022-09-28T04:48:05;6.78;;;5.28;;
55467;SDS011;41332;42.702;23.200;2022-09-28T04:50:31;6.43;;;5.15;;
55467;SDS011;41332;42.702;23.200;2022-09-28T04:52:59;7.10;;;5.05;;
55467;SDS011;41332;42.702;23.200;2022-09-28T04:55:26;8.60;;;4.97;;
55467;SDS011;41332;42.702;23.200;2022-09-28T04:57:56;6.43;;;4.57;;
55467;SDS011;41332;42.702;23.200;2022-09-28T05:00:30;5.05;;;4.65;;
55467;SDS011;41332;42.702;23.200;2022-09-28T05:02:59;7.00;;;4.47;;
55467;SDS011;41332;42.702;23.200;2022-09-28T05:05:25;6.57;;;5.00;;
55467;SDS011;41332;42.702;23.200;2022-09-28T05:07:50;4.20;;;3.80;;
55467;SDS011;41332;42.702;23.200;2022-09-28T05:10:16;4.57;;;4.18;;
55467;SDS011;41332;42.702;23.200;2022-09-28T05:12:42;5.90;;;4.07;;
55467;SDS011;41332;42.702;23.200;2022-09-28T05:15:08;7.90;;;4.25;;
55467;SDS011;41332;42.702;23.200;2022-09-28T05:17:34;3.85;;;3.50;;
55467;SDS011;41332;42.702;23.200;2022-09-28T05:19:59;6.25;;;3.83;;
55467;SDS011;41332;42.702;23.200;2022-09-28T05:22:26;4.10;;;3.80;;
55467;SDS011;41332;42.702;23.200;2022-09-28T05:24:52;5.40;;;3.80;;
55467;SDS011;41332;42.702;23.200;2022-09-28T05:27:19;3.88;;;3.38;;
55467;SDS011;41332;42.702;23.200;2022-09-28T05:29:44;5.40;;;3.83;;
55467;SDS011;41332;42.702;23.200;2022-09-28T05:32:10;6.32;;;5.10;;
55467;SDS011;41332;42.702;23.200;2022-09-28T05:34:39;6.97;;;6.32;;
55467;SDS011;41332;42.702;23.200;2022-09-28T05:37:18;11.60;;;5.43;;
55467;SDS011;41332;42.702;23.200;2022-09-28T05:39:51;4.70;;;4.30;;
55467;SDS011;41332;42.702;23.200;2022-09-28T05:42:24;5.07;;;4.63;;
55467;SDS011;41332;42.702;23.200;2022-09-28T05:44:54;6.30;;;4.30;;
55467;SDS011;41332;42.702;23.200;2022-09-28T05:47:22;7.55;;;5.22;;
55467;SDS011;41332;42.702;23.200;2022-09-28T05:56:21;4.43;;;4.03;;
55467;SDS011;41332;42.702;23.200;2022-09-28T05:58:47;7.40;;;3.80;;
55467;SDS011;41332;42.702;23.200;2022-09-28T06:01:13;5.97;;;3.63;;
55467;SDS011;41332;42.702;23.200;2022-09-28T06:03:38;5.15;;;3.85;;
55467;SDS011;41332;42.702;23.200;2022-09-28T06:06:04;4.82;;;3.90;;
55467;SDS011;41332;42.702;23.200;2022-09-28T06:08:30;3.70;;;3.40;;
55467;SDS011;41332;42.702;23.200;2022-09-28T06:10:59;4.43;;;4.03;;
55467;SDS011;41332;42.702;23.200;2022-09-28T06:13:26;6.55;;;4.07;;
55467;SDS011;41332;42.702;23.200;2022-09-28T06:15:52;5.55;;;4.40;;
55467;SDS011;41332;42.702;23.200;2022-09-28T06:18:20;6.03;;;4.63;;
55467;SDS011;41332;42.702;23.200;2022-09-28T06:20:46;7.60;;;4.07;;
55467;SDS011;41332;42.702;23.200;2022-09-28T06:23:12;4.90;;;4.50;;
55467;SDS011;41332;42.702;23.200;2022-09-28T06:25:37;5.78;;;4.90;;
55467;SDS011;41332;42.702;23.200;2022-09-28T06:28:04;4.25;;;3.85;;
55467;SDS011;41332;42.702;23.200;2022-09-28T06:30:33;5.53;;;4.35;;
55467;SDS011;41332;42.702;23.200;2022-09-28T06:33:03;6.63;;;3.95;;
55467;SDS011;41332;42.702;23.200;2022-09-28T06:35:35;8.88;;;5.10;;
55467;SDS011;41332;42.702;23.200;2022-09-28T06:38:01;4.65;;;4.22;;
55467;SDS011;41332;42.702;23.200;2022-09-28T06:40:27;5.60;;;4.72;;
55467;SDS011;41332;42.702;23.200;2022-09-28T06:42:59;10.60;;;4.50;;
55467;SDS011;41332;42.702;23.200;2022-09-28T06:48:42;4.22;;;3.83;;
55467;SDS011;41332;42.702;23.200;2022-09-28T06:51:09;5.77;;;4.40;;
55467;SDS011;41332;42.702;23.200;2022-09-28T06:53:52;5.03;;;4.53;;
55467;SDS011;41332;42.702;23.200;2022-09-28T06:56:19;4.40;;;4.00;;
55467;SDS011;41332;42.702;23.200;2022-09-28T06:58:45;4.70;;;4.25;;
55467;SDS011;41332;42.702;23.200;2022-09-28T07:01:11;5.63;;;4.40;;
55467;SDS011;41332;42.702;23.200;2022-09-28T07:03:36;7.78;;;4.47;;
55467;SDS011;41332;42.702;23.200;2022-09-28T07:06:01;5.60;;;5.10;;
55467;SDS011;41332;42.702;23.200;2022-09-28T07:08:28;7.95;;;5.30;;
55467;SDS011;41332;42.702;23.200;2022-09-28T07:10:53;7.90;;;5.43;;
55467;SDS011;41332;42.702;23.200;2022-09-28T07:13:21;8.32;;;5.13;;
55467;SDS011;41332;42.702;23.200;2022-09-28T07:15:54;5.35;;;4.78;;
55467;SDS011;41332;42.702;23.200;2022-09-28T07:18:21;10.80;;;4.85;;
55467;SDS011;41332;42.702;23.200;2022-09-28T07:20:47;6.70;;;4.47;;
55467;SDS011;41332;42.702;23.200;2022-09-28T07:23:13;7.30;;;5.50;;
55467;SDS011;41332;42.702;23.200;2022-09-28T07:25:42;9.27;;;5.07;;
55467;SDS011;41332;42.702;23.200;2022-09-28T07:28:11;8.73;;;5.43;;
55467;SDS011;41332;42.702;23.200;2022-09-28T07:30:36;5.07;;;4.57;;
55467;SDS011;41332;42.702;23.200;2022-09-28T07:33:03;5.47;;;4.97;;
55467;SDS011;41332;42.702;23.200;2022-09-28T07:35:30;6.07;;;5.50;;
55467;SDS011;41332;42.702;23.200;2022-09-28T07:38:02;5.40;;;5.00;;
55467;SDS011;41332;42.702;23.200;2022-09-28T07:40:29;10.00;;;6.22;;
55467;SDS011;41332;42.702;23.200;2022-09-28T07:43:14;13.77;;;7.13;;
55467;SDS011;41332;42.702;23.200;2022-09-28T07:45:47;10.13;;;7.60;;
55467;SDS011;41332;42.702;23.200;2022-09-28T07:48:14;8.05;;;6.93;;
55467;SDS011;41332;42.702;23.200;2022-09-28T07:50:40;9.45;;;6.70;;
55467;SDS011;41332;42.702;23.200;2022-09-28T07:53:17;10.73;;;6.70;;
55467;SDS011;41332;42.702;23.200;2022-09-28T07:55:52;12.20;;;6.43;;
55467;SDS011;41332;42.702;23.200;2022-09-28T07:58:19;8.10;;;5.97;;
55467;SDS011;41332;42.702;23.200;2022-09-28T08:00:46;11.40;;;7.45;;
55467;SDS011;41332;42.702;23.200;2022-09-28T08:03:13;8.15;;;6.78;;
55467;SDS011;41332;42.702;23.200;2022-09-28T08:05:40;8.77;;;6.28;;
55467;SDS011;41332;42.702;23.200;2022-09-28T08:08:07;10.77;;;8.05;;
55467;SDS011;41332;42.702;23.200;2022-09-28T08:10:33;12.30;;;6.90;;
55467;SDS011;41332;42.702;23.200;2022-09-28T08:12:58;9.63;;;6.57;;
55467;SDS011;41332;42.702;23.200;2022-09-28T08:15:28;12.20;;;5.80;;
55467;SDS011;41332;42.702;23.200;2022-09-28T08:17:58;11.95;;;6.22;;
55467;SDS011;41332;42.702;23.200;2022-09-28T08:20:23;7.82;;;5.53;;
55467;SDS011;41332;42.702;23.200;2022-09-28T08:23:07;9.35;;;6.57;;
55467;SDS011;41332;42.702;23.200;2022-09-28T08:25:33;8.27;;;6.35;;
55467;SDS011;41332;42.702;23.200;2022-09-28T08:28:02;12.45;;;8.65;;
55467;SDS011;41332;42.702;23.200;2022-09-28T08:30:28;73.93;;;37.30;;
55467;SDS011;41332;42.702;23.200;2022-09-28T08:32:55;51.35;;;24.88;;
55467;SDS011;41332;42.702;23.200;2022-09-28T08:35:21;70.97;;;33.88;;
55467;SDS011;41332;42.702;23.200;2022-09-28T08:37:51;12.50;;;7.63;;
55467;SDS011;41332;42.702;23.200;2022-09-28T08:40:21;14.30;;;11.25;;
55467;SDS011;41332;42.702;23.200;2022-09-28T08:42:55;12.80;;;9.30;;
55467;SDS011;41332;42.702;23.200;2022-09-28T08:45:27;12.95;;;8.65;;
55467;SDS011;41332;42.702;23.200;2022-09-28T08:50:50;12.13;;;9.15;;
55467;SDS011;41332;42.702;23.200;2022-09-28T08:56:56;15.60;;;8.50;;
55467;SDS011;41332;42.702;23.200;2022-09-28T08:59:17;12.80;;;6.55;;
55467;SDS011;41332;42.702;23.200;2022-09-28T09:01:48;10.38;;;8.13;;
55467;SDS011;41332;42.702;23.200;2022-09-28T09:04:17;13.93;;;8.70;;
55467;SDS011;41332;42.702;23.200;2022-09-28T09:22:58;4.57;;;1.75;;
55467;SDS011;41332;42.702;23.200;2022-09-28T09:25:44;6.60;;;1.73;;
55467;SDS011;41332;42.702;23.200;2022-09-28T09:34:15;6.60;;;1.73;;
55467;SDS011;41332;42.702;23.200;2022-09-28T09:37:14;4.25;;;1.20;;
55467;SDS011;41332;42.702;23.200;2022-09-28T09:39:59;5.00;;;1.55;;
55467;SDS011;41332;42.702;23.200;2022-09-28T09:48:07;1.52;;;1.17;;
55467;SDS011;41332;42.702;23.200;2022-09-28T09:50:55;1.45;;;1.10;;
55467;SDS011;41332;42.702;23.200;2022-09-28T09:53:45;2.33;;;0.73;;
55467;SDS011;41332;42.702;23.200;2022-09-28T09:56:18;1.58;;;1.05;;
55467;SDS011;41332;42.702;23.200;2022-09-28T09:58:52;3.47;;;1.13;;
55467;SDS011;41332;42.702;23.200;2022-09-28T10:01:35;3.65;;;0.77;;
55467;SDS011;41332;42.702;23.200;2022-09-28T10:04:03;1.73;;;1.10;;
55467;SDS011;41332;42.702;23.200;2022-09-28T10:06:36;2.65;;;0.70;;
55467;SDS011;41332;42.702;23.200;2022-09-28T10:09:09;0.57;;;0.57;;
55467;SDS011;41332;42.702;23.200;2022-09-28T10:11:44;4.35;;;0.70;;
55467;SDS011;41332;42.702;23.200;2022-09-28T10:14:15;1.50;;;0.50;;
55467;SDS011;41332;42.702;23.200;2022-09-28T10:16:44;1.77;;;0.80;;
55467;SDS011;41332;42.702;23.200;2022-09-28T10:19:12;3.70;;;0.90;;
55467;SDS011;41332;42.702;23.200;2022-09-28T10:21:39;2.95;;;1.10;;
55467;SDS011;41332;42.702;23.200;2022-09-28T10:26:39;1.55;;;0.65;;
55467;SDS011;41332;42.702;23.200;2022-09-28T10:29:16;1.40;;;0.85;;
55467;SDS011;41332;42.702;23.200;2022-09-28T10:31:46;3.45;;;2.35;;
55467;SDS011;41332;42.702;23.200;2022-09-28T10:34:15;0.98;;;0.60;;
55467;SDS011;41332;42.702;23.200;2022-09-28T10:36:53;1.65;;;1.13;;
55467;SDS011;41332;42.702;23.200;2022-09-28T10:42:10;1.55;;;0.73;;
55467;SDS011;41332;42.702;23.200;2022-09-28T10:44:48;1.15;;;0.88;;
55467;SDS011;41332;42.702;23.200;2022-09-28T10:47:18;2.00;;;1.02;;
55467;SDS011;41332;42.702;23.200;2022-09-28T10:49:46;2.35;;;1.20;;
55467;SDS011;41332;42.702;23.200;2022-09-28T10:55:26;1.13;;;0.80;;
55467;SDS011;41332;42.702;23.200;2022-09-28T10:57:56;5.85;;;1.23;;
55467;SDS011;41332;42.702;23.200;2022-09-28T11:02:57;1.95;;;0.82;;
55467;SDS011;41332;42.702;23.200;2022-09-28T11:05:24;2.33;;;0.90;;
55467;SDS011;41332;42.702;23.200;2022-09-28T11:07:54;3.55;;;0.98;;
55467;SDS011;41332;42.702;23.200;2022-09-28T11:10:22;2.80;;;1.05;;
55467;SDS011;41332;42.702;23.200;2022-09-28T11:12:50;4.15;;;0.90;;
55467;SDS011;41332;42.702;23.200;2022-09-28T11:15:18;2.72;;;0.85;;
55467;SDS011;41332;42.702;23.200;2022-09-28T11:17:46;7.13;;;3.60;;
55467;SDS011;41332;42.702;23.200;2022-09-28T11:25:27;1.10;;;0.70;;
55467;SDS011;41332;42.702;23.200;2022-09-28T11:33:19;4.28;;;1.25;;
55467;SDS011;41332;42.702;23.200;2022-09-28T11:49:06;0.80;;;0.80;;
55467;SDS011;41332;42.702;23.200;2022-09-28T11:51:43;3.85;;;0.73;;
55467;SDS011;41332;42.702;23.200;2022-09-28T11:54:15;4.03;;;0.82;;
55467;SDS011;41332;42.702;23.200;2022-09-28T11:56:53;2.45;;;0.70;;
55467;SDS011;41332;42.702;23.200;2022-09-28T11:59:27;3.95;;;1.58;;
55467;SDS011;41332;42.702;23.200;2022-09-28T12:02:16;1.60;;;0.60;;
55467;SDS011;41332;42.702;23.200;2022-09-28T12:07:23;1.75;;;0.55;;
55467;SDS011;41332;42.702;23.200;2022-09-28T12:12:32;3.25;;;0.70;;
55467;SDS011;41332;42.702;23.200;2022-09-28T12:15:13;1.15;;;0.70;;
55467;SDS011;41332;42.702;23.200;2022-09-28T12:18:01;2.00;;;0.98;;
55467;SDS011;41332;42.702;23.200;2022-09-28T12:20:32;3.80;;;0.80;;
55467;SDS011;41332;42.702;23.200;2022-09-28T12:49:32;0.85;;;0.85;;
55467;SDS011;41332;42.702;23.200;2022-09-28T13:00:18;0.55;;;0.55;;
55467;SDS011;41332;42.702;23.200;2022-09-28T13:19:58;0.57;;;0.50;;
55467;SDS011;41332;42.702;23.200;2022-09-28T13:25:29;1.13;;;0.52;;
55467;SDS011;41332;42.702;23.200;2022-09-28T13:28:00;0.70;;;0.70;;
55467;SDS011;41332;42.702;23.200;2022-09-28T13:30:28;2.95;;;0.55;;
55467;SDS011;41332;42.702;23.200;2022-09-28T13:32:56;2.35;;;0.32;;
55467;SDS011;41332;42.702;23.200;2022-09-28T13:35:25;2.92;;;0.73;;
55467;SDS011;41332;42.702;23.200;2022-09-28T13:38:27;2.22;;;0.70;;
55467;SDS011;41332;42.702;23.200;2022-09-28T13:44:12;0.85;;;0.55;;
55467;SDS011;41332;42.702;23.200;2022-09-28T13:46:38;1.90;;;0.43;;
55467;SDS011;41332;42.702;23.200;2022-09-28T13:55:08;1.35;;;0.70;;
55467;SDS011;41332;42.702;23.200;2022-09-28T14:03:23;0.82;;;0.82;;
55467;SDS011;41332;42.702;23.200;2022-09-28T14:06:05;2.65;;;0.40;;
55467;SDS011;41332;42.702;23.200;2022-09-28T14:11:23;0.60;;;0.50;;
55467;SDS011;41332;42.702;23.200;2022-09-28T14:16:36;0.63;;;0.63;;
55467;SDS011;41332;42.702;23.200;2022-09-28T14:32:35;0.57;;;0.47;;
55467;SDS011;41332;42.702;23.200;2022-09-28T14:37:38;1.13;;;0.25;;
55467;SDS011;41332;42.702;23.200;2022-09-28T14:40:29;1.95;;;0.50;;
55467;SDS011;41332;42.702;23.200;2022-09-28T14:43:23;0.70;;;0.60;;
55467;SDS011;41332;42.702;23.200;2022-09-28T14:48:41;0.82;;;0.40;;
55467;SDS011;41332;42.702;23.200;2022-09-28T14:53:50;4.70;;;0.60;;
55467;SDS011;41332;42.702;23.200;2022-09-28T15:04:19;1.65;;;0.70;;
55467;SDS011;41332;42.702;23.200;2022-09-28T15:06:48;0.40;;;0.30;;
55467;SDS011;41332;42.702;23.200;2022-09-28T15:11:52;15.02;;;1.27;;
55467;SDS011;41332;42.702;23.200;2022-09-28T15:17:20;3.85;;;0.30;;
55467;SDS011;41332;42.702;23.200;2022-09-28T15:22:48;2.22;;;0.60;;
55467;SDS011;41332;42.702;23.200;2022-09-28T15:25:18;1.10;;;0.47;;
55467;SDS011;41332;42.702;23.200;2022-09-28T15:27:45;1.95;;;0.70;;
55467;SDS011;41332;42.702;23.200;2022-09-28T15:32:47;0.70;;;0.60;;
55467;SDS011;41332;42.702;23.200;2022-09-28T15:35:20;0.43;;;0.35;;
55467;SDS011;41332;42.702;23.200;2022-09-28T15:37:50;1.20;;;0.45;;
55467;SDS011;41332;42.702;23.200;2022-09-28T15:40:30;5.72;;;0.52;;
55467;SDS011;41332;42.702;23.200;2022-09-28T15:42:58;0.88;;;0.30;;
55467;SDS011;41332;42.702;23.200;2022-09-28T15:45:30;2.08;;;0.65;;
55467;SDS011;41332;42.702;23.200;2022-09-28T15:48:17;0.67;;;0.63;;
55467;SDS011;41332;42.702;23.200;2022-09-28T15:51:16;1.23;;;0.50;;
55467;SDS011;41332;42.702;23.200;2022-09-28T15:53:56;1.27;;;0.60;;
55467;SDS011;41332;42.702;23.200;2022-09-28T15:56:22;1.85;;;0.38;;
55467;SDS011;41332;42.702;23.200;2022-09-28T16:01:42;1.02;;;0.50;;
55467;SDS011;41332;42.702;23.200;2022-09-28T16:09:53;1.77;;;0.52;;
55467;SDS011;41332;42.702;23.200;2022-09-28T16:12:18;2.00;;;0.50;;
55467;SDS011;41332;42.702;23.200;2022-09-28T16:14:48;0.50;;;0.50;;
55467;SDS011;41332;42.702;23.200;2022-09-28T16:17:17;0.57;;;0.40;;
55467;SDS011;41332;42.702;23.200;2022-09-28T16:19:53;1.17;;;0.60;;
55467;SDS011;41332;42.702;23.200;2022-09-28T16:22:19;2.67;;;0.43;;
55467;SDS011;41332;42.702;23.200;2022-09-28T16:24:54;2.05;;;0.55;;
55467;SDS011;41332;42.702;23.200;2022-09-28T16:30:23;5.28;;;0.80;;
55467;SDS011;41332;42.702;23.200;2022-09-28T16:33:04;1.75;;;0.85;;
55467;SDS011;41332;42.702;23.200;2022-09-28T16:35:50;0.65;;;0.65;;
55467;SDS011;41332;42.702;23.200;2022-09-28T16:38:16;1.27;;;0.38;;
55467;SDS011;41332;42.702;23.200;2022-09-28T16:40:43;1.92;;;0.60;;
55467;SDS011;41332;42.702;23.200;2022-09-28T16:43:21;2.50;;;0.75;;
55467;SDS011;41332;42.702;23.200;2022-09-28T16:46:00;3.78;;;1.30;;
55467;SDS011;41332;42.702;23.200;2022-09-28T16:48:33;1.25;;;1.00;;
55467;SDS011;41332;42.702;23.200;2022-09-28T16:51:03;1.17;;;0.70;;
55467;SDS011;41332;42.702;23.200;2022-09-28T16:53:29;1.55;;;0.77;;
55467;SDS011;41332;42.702;23.200;2022-09-28T16:56:13;1.70;;;1.00;;
55467;SDS011;41332;42.702;23.200;2022-09-28T16:58:38;4.78;;;1.20;;
55467;SDS011;41332;42.702;23.200;2022-09-28T17:01:04;2.47;;;1.65;;
55467;SDS011;41332;42.702;23.200;2022-09-28T17:03:35;2.78;;;0.80;;
55467;SDS011;41332;42.702;23.200;2022-09-28T17:06:01;9.10;;;2.08;;
55467;SDS011;41332;42.702;23.200;2022-09-28T17:08:28;2.25;;;1.00;;
55467;SDS011;41332;42.702;23.200;2022-09-28T17:13:20;1.83;;;0.98;;
55467;SDS011;41332;42.702;23.200;2022-09-28T17:15:47;2.63;;;0.98;;
55467;SDS011;41332;42.702;23.200;2022-09-28T17:18:14;2.88;;;1.00;;
55467;SDS011;41332;42.702;23.200;2022-09-28T17:20:43;2.70;;;0.80;;
55467;SDS011;41332;42.702;23.200;2022-09-28T17:23:12;2.97;;;1.30;;
55467;SDS011;41332;42.702;23.200;2022-09-28T17:25:38;2.08;;;0.88;;
55467;SDS011;41332;42.702;23.200;2022-09-28T17:28:04;2.67;;;0.93;;
55467;SDS011;41332;42.702;23.200;2022-09-28T17:30:30;1.00;;;0.77;;
55467;SDS011;41332;42.702;23.200;2022-09-28T17:32:55;1.10;;;1.00;;
55467;SDS011;41332;42.702;23.200;2022-09-28T17:35:22;1.58;;;0.95;;
55467;SDS011;41332;42.702;23.200;2022-09-28T17:37:48;2.72;;;0.80;;
55467;SDS011;41332;42.702;23.200;2022-09-28T17:42:43;1.38;;;0.63;;
55467;SDS011;41332;42.702;23.200;2022-09-28T17:45:10;1.17;;;1.02;;
55467;SDS011;41332;42.702;23.200;2022-09-28T17:47:35;2.40;;;1.00;;
55467;SDS011;41332;42.702;23.200;2022-09-28T17:50:01;1.70;;;1.15;;
55467;SDS011;41332;42.702;23.200;2022-09-28T17:52:26;2.33;;;1.00;;
55467;SDS011;41332;42.702;23.200;2022-09-28T17:54:52;3.03;;;0.95;;
55467;SDS011;41332;42.702;23.200;2022-09-28T17:57:17;0.80;;;0.75;;
55467;SDS011;41332;42.702;23.200;2022-09-28T17:59:42;5.68;;;1.10;;
55467;SDS011;41332;42.702;23.200;2022-09-28T18:02:11;5.03;;;1.10;;
55467;SDS011;41332;42.702;23.200;2022-09-28T18:04:36;3.17;;;1.00;;
55467;SDS011;41332;42.702;23.200;2022-09-28T18:07:02;0.75;;;0.73;;
55467;SDS011;41332;42.702;23.200;2022-09-28T18:09:27;1.00;;;0.85;;
55467;SDS011;41332;42.702;23.200;2022-09-28T18:11:59;0.93;;;0.93;;
55467;SDS011;41332;42.702;23.200;2022-09-28T18:14:28;1.77;;;0.80;;
55467;SDS011;41332;42.702;23.200;2022-09-28T18:16:54;2.28;;;0.88;;
55467;SDS011;41332;42.702;23.200;2022-09-28T18:19:19;4.82;;;1.15;;
55467;SDS011;41332;42.702;23.200;2022-09-28T18:21:45;1.40;;;1.20;;
55467;SDS011;41332;42.702;23.200;2022-09-28T18:24:10;1.58;;;1.10;;
55467;SDS011;41332;42.702;23.200;2022-09-28T18:26:36;3.72;;;1.05;;
55467;SDS011;41332;42.702;23.200;2022-09-28T18:29:01;3.33;;;0.93;;
55467;SDS011;41332;42.702;23.200;2022-09-28T18:31:27;1.10;;;0.90;;
55467;SDS011;41332;42.702;23.200;2022-09-28T18:33:56;4.38;;;1.40;;
55467;SDS011;41332;42.702;23.200;2022-09-28T18:36:27;2.20;;;1.02;;
55467;SDS011;41332;42.702;23.200;2022-09-28T18:38:53;2.30;;;1.10;;
55467;SDS011;41332;42.702;23.200;2022-09-28T18:41:19;1.38;;;1.08;;
55467;SDS011;41332;42.702;23.200;2022-09-28T18:43:48;1.35;;;1.25;;
55467;SDS011;41332;42.702;23.200;2022-09-28T18:46:14;2.97;;;1.30;;
55467;SDS011;41332;42.702;23.200;2022-09-28T18:48:39;4.82;;;1.05;;
55467;SDS011;41332;42.702;23.200;2022-09-28T18:51:09;2.78;;;1.38;;
55467;SDS011;41332;42.702;23.200;2022-09-28T18:53:36;2.30;;;1.13;;
55467;SDS011;41332;42.702;23.200;2022-09-28T18:56:06;3.17;;;1.35;;
55467;SDS011;41332;42.702;23.200;2022-09-28T18:58:36;5.45;;;1.17;;
55467;SDS011;41332;42.702;23.200;2022-09-28T19:01:10;2.78;;;1.20;;
55467;SDS011;41332;42.702;23.200;2022-09-28T19:03:40;1.90;;;1.40;;
55467;SDS011;41332;42.702;23.200;2022-09-28T19:06:09;2.88;;;1.65;;
55467;SDS011;41332;42.702;23.200;2022-09-28T19:08:40;6.53;;;1.83;;
55467;SDS011;41332;42.702;23.200;2022-09-28T19:11:10;5.18;;;1.48;;
55467;SDS011;41332;42.702;23.200;2022-09-28T19:13:37;3.38;;;1.48;;
55467;SDS011;41332;42.702;23.200;2022-09-28T19:16:07;4.10;;;1.27;;
55467;SDS011;41332;42.702;23.200;2022-09-28T19:18:37;3.25;;;1.73;;
55467;SDS011;41332;42.702;23.200;2022-09-28T19:21:04;5.85;;;1.50;;
55467;SDS011;41332;42.702;23.200;2022-09-28T19:23:31;4.88;;;1.73;;
55467;SDS011;41332;42.702;23.200;2022-09-28T19:26:01;2.60;;;1.48;;
55467;SDS011;41332;42.702;23.200;2022-09-28T19:28:35;2.90;;;1.30;;
55467;SDS011;41332;42.702;23.200;2022-09-28T19:31:03;3.08;;;1.20;;
55467;SDS011;41332;42.702;23.200;2022-09-28T19:33:29;2.70;;;1.10;;
55467;SDS011;41332;42.702;23.200;2022-09-28T19:35:56;4.75;;;1.23;;
55467;SDS011;41332;42.702;23.200;2022-09-28T19:40:47;3.30;;;1.13;;
55467;SDS011;41332;42.702;23.200;2022-09-28T19:43:13;1.70;;;1.02;;
55467;SDS011;41332;42.702;23.200;2022-09-28T19:45:38;3.97;;;2.10;;
55467;SDS011;41332;42.702;23.200;2022-09-28T19:48:04;3.28;;;1.58;;
55467;SDS011;41332;42.702;23.200;2022-09-28T19:50:30;2.22;;;1.10;;
55467;SDS011;41332;42.702;23.200;2022-09-28T19:52:55;1.13;;;0.85;;
55467;SDS011;41332;42.702;23.200;2022-09-28T19:55:26;4.20;;;1.27;;
55467;SDS011;41332;42.702;23.200;2022-09-28T19:58:00;3.55;;;1.23;;
55467;SDS011;41332;42.702;23.200;2022-09-28T20:00:26;1.05;;;1.02;;
55467;SDS011;41332;42.702;23.200;2022-09-28T20:02:51;2.08;;;0.90;;
55467;SDS011;41332;42.702;23.200;2022-09-28T20:05:17;1.77;;;1.00;;
55467;SDS011;41332;42.702;23.200;2022-09-28T20:07:42;1.30;;;0.90;;
55467;SDS011;41332;42.702;23.200;2022-09-28T20:10:08;2.97;;;0.95;;
55467;SDS011;41332;42.702;23.200;2022-09-28T20:12:36;3.92;;;1.15;;
55467;SDS011;41332;42.702;23.200;2022-09-28T20:15:01;2.47;;;1.00;;
55467;SDS011;41332;42.702;23.200;2022-09-28T20:17:27;4.10;;;1.38;;
55467;SDS011;41332;42.702;23.200;2022-09-28T20:19:53;1.25;;;0.80;;
55467;SDS011;41332;42.702;23.200;2022-09-28T20:22:18;5.15;;;1.02;;
55467;SDS011;41332;42.702;23.200;2022-09-28T20:24:44;1.20;;;1.10;;
55467;SDS011;41332;42.702;23.200;2022-09-28T20:27:09;1.67;;;0.90;;
55467;SDS011;41332;42.702;23.200;2022-09-28T20:29:34;1.08;;;0.98;;
55467;SDS011;41332;42.702;23.200;2022-09-28T20:32:00;1.38;;;0.90;;
55467;SDS011;41332;42.702;23.200;2022-09-28T20:34:27;3.20;;;1.00;;
55467;SDS011;41332;42.702;23.200;2022-09-28T20:36:53;0.77;;;0.65;;
55467;SDS011;41332;42.702;23.200;2022-09-28T20:39:18;1.35;;;1.00;;
55467;SDS011;41332;42.702;23.200;2022-09-28T20:41:44;2.40;;;1.10;;
55467;SDS011;41332;42.702;23.200;2022-09-28T20:44:11;3.33;;;0.90;;
55467;SDS011;41332;42.702;23.200;2022-09-28T20:46:36;1.88;;;1.42;;
55467;SDS011;41332;42.702;23.200;2022-09-28T20:49:02;2.58;;;1.13;;
55467;SDS011;41332;42.702;23.200;2022-09-28T20:51:28;2.93;;;1.10;;
55467;SDS011;41332;42.702;23.200;2022-09-28T20:53:55;1.10;;;1.05;;
55467;SDS011;41332;42.702;23.200;2022-09-28T20:56:22;0.70;;;0.70;;
55467;SDS011;41332;42.702;23.200;2022-09-28T20:59:07;1.77;;;1.67;;
55467;SDS011;41332;42.702;23.200;2022-09-28T21:01:35;2.58;;;1.30;;
55467;SDS011;41332;42.702;23.200;2022-09-28T21:04:02;1.33;;;1.08;;
55467;SDS011;41332;42.702;23.200;2022-09-28T21:06:30;3.08;;;1.20;;
55467;SDS011;41332;42.702;23.200;2022-09-28T21:08:57;2.72;;;1.27;;
55467;SDS011;41332;42.702;23.200;2022-09-28T21:11:24;3.55;;;1.30;;
55467;SDS011;41332;42.702;23.200;2022-09-28T21:13:52;2.42;;;1.52;;
55467;SDS011;41332;42.702;23.200;2022-09-28T21:16:26;2.17;;;1.10;;
55467;SDS011;41332;42.702;23.200;2022-09-28T21:18:53;3.08;;;0.85;;
55467;SDS011;41332;42.702;23.200;2022-09-28T21:21:19;3.15;;;1.05;;
55467;SDS011;41332;42.702;23.200;2022-09-28T21:23:45;1.58;;;1.42;;
55467;SDS011;41332;42.702;23.200;2022-09-28T21:26:12;3.58;;;2.30;;
55467;SDS011;41332;42.702;23.200;2022-09-28T21:28:40;2.70;;;1.48;;
55467;SDS011;41332;42.702;23.200;2022-09-28T21:31:06;4.13;;;1.48;;
55467;SDS011;41332;42.702;23.200;2022-09-28T21:33:34;2.40;;;1.30;;
55467;SDS011;41332;42.702;23.200;2022-09-28T21:36:00;3.05;;;1.70;;
55467;SDS011;41332;42.702;23.200;2022-09-28T21:38:27;2.75;;;1.45;;
55467;SDS011;41332;42.702;23.200;2022-09-28T21:40:53;4.85;;;1.63;;
55467;SDS011;41332;42.702;23.200;2022-09-28T21:43:20;10.63;;;1.75;;
55467;SDS011;41332;42.702;23.200;2022-09-28T21:45:50;5.88;;;1.63;;